Latest Weather Observations for Toowoomba

IDQ60901

Issued at 7:51 pm EST Sunday 11 December 2016 (issued every 10 minutes, with the page automatically refreshed every 10 minutes)

About weather observations | Map of Brisbane area stations | Latest observations for Brisbane area | Other Formats
Station Details ID: 041529 Name: TOOWOOMBA AIRPORT Lat: -27.54 Lon: 151.91 Height: 640.9 m
Data from the previous 72 hours. | See also: Recent months at Toowoomba
Date/Time
EST
Temp
°C
App
Temp
°C
Dew
Point
°C
Rel
Hum
%
Delta-T
°C
Wind Press
QNH
hPa
Press
MSL
hPa
Rain since
9am
mm
Dir  Spd
km/h
Gust
km/h
Spd
kts
Gust
kts
11/07:30pm 18.0 13.8 11.1 64 3.9 E 24 33 13 18 1023.8 1020.4 0.0
11/07:00pm 18.4 14.4 11.7 65 3.8 ENE 24 32 13 17 1023.4 1020.1 0.0
11/06:30pm 19.2 14.4 11.7 62 4.3 ENE 28 37 15 20 1023.3 1020.0 0.0
11/06:00pm 20.0 14.7 11.2 57 5.0 E 30 37 16 20 1023.2 1019.9 0.0
11/05:30pm 20.8 15.9 11.2 54 5.5 E 28 37 15 20 1022.8 1019.5 0.0
11/05:00pm 21.6 16.0 10.1 48 6.4 E 30 39 16 21 1022.2 1018.8 0.0
11/04:30pm 21.9 16.7 10.1 47 6.6 E 28 37 15 20 1022.2 1018.8 0.0
11/04:00pm 24.2 19.9 11.9 46 7.2 E 26 39 14 21 1022.2 1018.8 0.0
11/03:30pm 23.3 18.2 10.7 45 7.2 E 28 39 15 21 1022.1 1018.7 0.0
11/03:00pm 23.0 17.8 10.1 44 7.2 ENE 28 37 15 20 1022.4 1019.0 0.0
11/02:30pm 23.9 18.9 10.9 44 7.5 E 28 39 15 21 1022.4 1019.0 0.0
11/02:00pm 22.8 17.2 10.3 45 7.0 E 30 41 16 22 1022.8 1019.5 0.0
11/01:30pm 24.0 18.6 11.0 44 7.5 E 30 41 16 22 1023.0 1019.7 0.0
11/01:00pm 23.6 18.1 10.6 44 7.4 E 30 41 16 22 1023.1 1019.8 0.0
11/12:32pm 23.8 18.6 10.1 42 7.7 E 28 46 15 25 1023.2 1019.9 0.0
11/12:30pm 23.8 19.1 12.1 48 6.8 E 28 39 15 21 1023.3 1020.0 0.0
11/12:00pm 22.5 16.9 10.0 45 7.0 E 30 44 16 24 1023.9 1020.5 0.0
11/11:30am 21.9 16.0 10.4 48 6.5 E 32 43 17 23 1024.0 1020.6 0.0
11/11:00am 22.0 16.0 10.8 49 6.3 E 33 43 18 23 1024.0 1020.6 0.0
11/10:30am 21.3 15.7 11.6 54 5.6 E 32 43 17 23 1024.3 1021.0 0.0
11/10:00am 19.9 15.0 11.4 58 4.8 E 28 39 15 21 1024.6 1021.3 0.0
11/09:30am 19.5 15.4 11.5 60 4.5 E 24 32 13 17 1024.6 1021.3 0.0
11/09:00am 19.2 13.2 12.2 64 4.0 E 35 43 19 23 1024.4 1021.1 0.0
11/08:30am 18.9 14.1 12.9 68 3.5 E 30 39 16 21 1024.4 1021.1 0.0
11/08:00am 18.5 14.7 13.6 73 2.9 E 26 35 14 19 1024.5 1021.2 0.0
11/07:30am 18.1 13.3 14.0 77 2.4 E 32 37 17 20 1024.1 1020.8 0.0
11/07:00am 17.2 12.0 14.5 84 1.6 E 35 44 19 24 1023.4 1020.1 0.0
11/06:30am 16.5 11.6 14.3 87 1.3 E 33 44 18 24 1023.2 1019.9 0.0
11/06:00am 15.7 11.7 14.2 91 0.9 E 28 33 15 18 1023.1 1019.8 0.0
11/05:30am 15.4 11.1 14.3 93 0.6 E 30 35 16 19 1022.8 1019.5 0.0
11/05:00am 15.2 11.2 14.2 94 0.6 E 28 35 15 19 1022.7 1019.4 0.0
11/04:30am 15.3 10.9 14.2 93 0.6 E 30 37 16 20 1022.5 1019.1 0.0
11/04:00am 15.4 11.8 14.1 92 0.8 E 26 35 14 19 1022.3 1018.9 0.0
11/03:53am 15.5 11.6 14.4 93 0.6 E 28 35 15 19 1022.3 1018.9 0.0
11/03:30am 15.5 11.6 14.4 93 0.6 E 28 33 15 18 1022.3 1018.9 0.0
11/03:13am 15.5 11.6 14.4 93 0.6 E 28 35 15 19 1022.4 1019.0 0.0
11/03:03am 15.5 11.6 14.4 93 0.6 E 28 35 15 19 1022.4 1019.0 0.0
11/03:00am 15.5 11.6 14.4 93 0.6 E 28 35 15 19 1022.4 1019.0 0.0
11/02:30am 15.7 11.4 14.4 92 0.8 E 30 39 16 21 1022.3 1018.9 0.0
11/02:26am 15.8 11.2 14.5 92 0.8 ESE 32 39 17 21 1022.3 1018.9 0.0
11/02:13am 15.7 11.0 14.4 92 0.8 ESE 32 41 17 22 1022.3 1018.9 0.0
11/02:00am 15.8 11.2 14.5 92 0.8 E 32 43 17 23 1022.3 1018.9 0.0
11/01:30am 15.9 11.3 14.6 92 0.8 E 32 43 17 23 1022.5 1019.1 0.0
11/01:16am 15.9 11.6 14.4 91 0.9 E 30 39 16 21 1022.7 1019.4 0.0
11/01:00am 15.9 11.6 14.4 91 0.9 E 30 39 16 21 1022.8 1019.5 0.0
11/12:30am 16.0 11.3 14.4 90 0.9 E 32 41 17 22 1022.9 1019.6 0.0
11/12:00am 16.1 11.4 14.3 89 1.1 E 32 39 17 21 1023.4 1020.1 0.0
 
Date/Time
EST
Temp
°C
App
Temp
°C
Dew
Point
°C
Rel
Hum
%
Delta-T
°C
Wind Press
QNH
hPa
Press
MSL
hPa
Rain since
9am
mm
Dir  Spd
km/h
Gust
km/h
Spd
kts
Gust
kts
10/11:42pm 16.2 11.5 14.2 88 1.2 E 32 41 17 22 1023.6 1020.2 0.0
10/11:31pm 16.4 12.5 14.4 88 1.2 E 28 37 15 20 1023.7 1020.3 0.0
10/11:30pm 16.4 12.5 14.4 88 1.2 E 28 37 15 20 1023.7 1020.3 0.0
10/11:00pm 16.3 11.6 14.3 88 1.2 E 32 43 17 23 1023.8 1020.4 0.0
10/10:30pm 16.6 11.6 14.1 85 1.5 E 33 44 18 24 1023.8 1020.4 0.0
10/10:00pm 16.9 11.9 14.0 83 1.7 E 33 46 18 25 1023.8 1020.4 0.0
10/09:53pm 17.1 12.2 14.2 83 1.7 E 33 44 18 24 1024.0 1020.6 0.0
10/09:30pm 17.2 11.9 14.1 82 1.8 E 35 46 19 25 1023.7 1020.3 0.0
10/09:28pm 17.2 11.9 14.3 83 1.7 E 35 46 19 25 1023.7 1020.3 0.0
10/09:00pm 17.4 12.7 14.3 82 1.8 E 32 41 17 22 1023.3 1020.0 0.0
10/08:30pm 17.7 13.0 14.2 80 2.1 E 32 43 17 23 1023.2 1019.9 0.0
10/08:00pm 18.2 13.3 14.3 78 2.3 E 33 46 18 25 1023.1 1019.8 0.0
10/07:30pm 18.4 13.1 14.1 76 2.5 E 35 48 19 26 1022.6 1019.2 0.0
10/07:00pm 18.8 13.8 14.1 74 2.8 E 33 43 18 23 1022.4 1019.0 0.0
10/06:30pm 19.4 15.8 14.2 72 3.1 ENE 26 35 14 19 1022.3 1018.9 0.0
10/06:00pm 20.3 15.5 14.0 67 3.7 E 32 44 17 24 1022.0 1018.6 0.0
10/05:30pm 21.4 16.3 13.8 62 4.5 E 33 43 18 23 1021.4 1018.1 0.0
10/05:00pm 22.2 17.5 13.3 57 5.3 E 30 37 16 20 1021.0 1017.6 0.0
10/04:30pm 22.8 18.3 13.8 57 5.4 ENE 30 41 16 22 1021.1 1017.7 0.0
10/04:00pm 22.9 17.8 13.1 54 5.8 E 32 44 17 24 1020.9 1017.5 0.0
10/03:30pm 23.7 18.6 13.0 51 6.4 E 32 41 17 22 1020.8 1017.4 0.0
10/03:00pm 23.0 18.2 11.7 49 6.5 E 28 37 15 20 1021.1 1017.7 0.0
10/02:30pm 24.2 19.8 12.8 49 6.8 E 28 35 15 19 1021.5 1018.2 0.0
10/02:00pm 24.1 19.7 13.0 50 6.6 E 28 39 15 21 1021.5 1018.2 0.0
10/01:30pm 23.5 19.0 12.5 50 6.5 E 28 37 15 20 1022.0 1018.6 0.0
10/01:00pm 23.1 17.9 12.7 52 6.1 E 32 39 17 21 1022.4 1019.0 0.0
10/12:30pm 22.8 18.3 12.7 53 5.9 E 28 37 15 20 1022.8 1019.5 0.0
10/12:00pm 22.6 17.7 13.7 57 5.3 E 32 41 17 22 1022.8 1019.5 0.0
10/11:30am 22.4 17.7 13.2 56 5.4 ENE 30 39 16 21 1022.9 1019.6 0.0
10/11:00am 22.3 17.5 13.9 59 5.0 E 32 43 17 23 1022.9 1019.6 0.0
10/10:30am 20.3 15.0 12.5 61 4.5 E 32 44 17 24 1023.1 1019.8 0.0
10/10:00am 20.2 16.0 13.6 66 3.9 E 28 37 15 20 1023.2 1019.9 0.0
10/09:30am 19.8 14.9 13.7 68 3.6 E 32 39 17 21 1023.2 1019.9 0.0
10/09:00am 19.2 14.0 13.4 69 3.4 E 33 43 18 23 1023.0 1019.7 0.0
10/08:30am 19.7 14.1 13.2 66 3.8 E 35 43 19 23 1022.8 1019.5 0.0
10/08:06am 18.8 13.8 13.4 71 3.2 E 32 50 17 27 1022.5 1019.1 0.0
10/08:00am 18.1 13.1 13.4 74 2.7 E 32 44 17 24 1022.5 1019.1 0.0
10/07:30am 18.3 13.3 14.0 76 2.5 E 33 44 18 24 1022.3 1018.9 0.0
10/07:21am 18.4 14.5 14.5 78 2.3 E 28 41 15 22 1022.2 1018.8 0.0
10/07:07am 17.5 12.8 14.2 81 1.9 E 32 46 17 25 1022.0 1018.6 0.0
10/07:04am 17.5 13.2 14.4 82 1.8 E 30 46 16 25 1022.0 1018.6 0.0
10/07:00am 17.4 12.8 14.7 84 1.6 E 32 43 17 23 1022.0 1018.6 0.0
10/06:30am 16.7 12.2 14.9 89 1.1 E 32 41 17 22 1021.3 1018.0 0.0
10/06:00am 16.5 13.3 15.2 92 0.8 E 26 37 14 20 1021.2 1017.8 0.0
10/05:30am 16.6 13.7 15.1 91 0.9 E 24 37 13 20 1020.6 1017.2 0.0
10/05:17am 16.6 13.8 15.3 92 0.8 E 24 33 13 18 1020.4 1017.0 0.0
10/05:16am 16.6 13.8 15.3 92 0.8 E 24 33 13 18 1020.4 1017.0 0.0
10/05:00am 16.6 14.2 15.3 92 0.8 E 22 33 12 18 1020.0 1016.7 0.0
10/04:30am 16.7 14.6 15.2 91 0.9 E 20 28 11 15 1019.8 1016.4 0.0
10/04:00am 16.8 14.7 15.3 91 0.9 E 20 24 11 13 1019.4 1016.0 0.0
10/03:30am 17.0 15.4 15.0 88 1.2 ENE 17 22 9 12 1019.2 1015.8 0.0
10/03:00am 17.1 16.2 14.9 87 1.3 ENE 13 19 7 10 1018.9 1015.5 0.0
10/02:30am 17.2 16.0 15.0 87 1.3 E 15 20 8 11 1018.9 1015.5 0.0
10/02:22am 17.2 15.9 14.8 86 1.4 E 15 19 8 10 1018.9 1015.5 0.0
10/02:00am 17.3 15.7 15.1 87 1.3 E 17 22 9 12 1018.7 1015.3 0.0
10/01:53am 17.3 15.7 15.1 87 1.3 E 17 22 9 12 1018.4 1015.1 0.0
10/01:42am 17.5 15.6 15.3 87 1.3 E 19 24 10 13 1018.7 1015.3 0.0
10/01:30am 17.4 16.2 15.0 86 1.4 E 15 20 8 11 1018.7 1015.3 0.0
10/01:00am 17.4 14.4 14.9 85 1.5 E 24 32 13 17 1018.7 1015.3 0.0
10/12:30am 17.2 13.2 8.9 58 4.4 E 20 26 11 14 1018.7 1015.3 0.0
10/12:00am 16.9 13.2 4.3 43 6.1 SE 13 24 7 13 1018.7 1015.3 0.0
 
Date/Time
EST
Temp
°C
App
Temp
°C
Dew
Point
°C
Rel
Hum
%
Delta-T
°C
Wind Press
QNH
hPa
Press
MSL
hPa
Rain since
9am
mm
Dir  Spd
km/h
Gust
km/h
Spd
kts
Gust
kts
09/11:30pm 17.9 14.6 2.6 36 7.3 SSW 9 13 5 7 1018.4 1015.1 0.0
09/11:00pm 18.4 14.9 3.5 37 7.2 SSW 11 13 6 7 1018.6 1015.2 0.0
09/10:30pm 18.5 14.9 3.2 36 7.4 SSW 11 15 6 8 1018.7 1015.3 0.0
09/10:00pm 18.9 15.7 3.1 35 7.6 SSW 9 11 5 6 1018.4 1015.1 0.0
09/09:30pm 18.7 15.5 2.9 35 7.6 SSW 9 13 5 7 1018.3 1014.9 0.0
09/09:00pm 19.1 16.3 2.9 34 7.8 SSW 7 9 4 5 1017.9 1014.5 0.0
09/08:30pm 19.1 16.0 3.7 36 7.5 SSW 9 11 5 6 1017.8 1014.4 0.0
09/08:00pm 19.4 16.3 3.6 35 7.7 SW 9 13 5 7 1017.6 1014.2 0.0
09/07:30pm 19.7 16.4 4.6 37 7.5 SW 11 13 6 7 1017.0 1013.5 0.0
09/07:00pm 20.5 17.4 3.7 33 8.3 WSW 9 13 5 7 1016.9 1013.4 0.0
09/06:30pm 22.3 18.3 2.9 28 9.5 WSW 13 19 7 10 1016.3 1012.9 0.0
09/06:00pm 23.5 18.0 1.8 24 10.5 WSW 20 28 11 15 1015.9 1012.5 0.0
09/05:30pm 24.1 18.7 4.5 28 10.1 WSW 22 32 12 17 1015.3 1011.8 0.0
09/05:00pm 24.9 18.2 3.5 25 10.8 WSW 28 33 15 18 1014.9 1011.5 0.0
09/04:30pm 25.4 18.8 2.2 22 11.5 SW 26 35 14 19 1014.3 1010.9 0.0
09/04:00pm 25.4 18.1 2.2 22 11.5 WSW 30 41 16 22 1014.0 1010.5 0.0
09/03:30pm 25.0 18.1 4.7 27 10.5 WSW 30 41 16 22 1014.1 1010.6 0.0
09/03:00pm 25.4 19.0 7.1 31 9.9 WSW 30 41 16 22 1014.0 1010.5 0.0
09/02:30pm 24.2 19.3 11.2 44 7.5 WSW 28 43 15 23 1014.1 1010.6 0.0
09/02:00pm 22.8 18.0 11.5 49 6.5 WSW 28 37 15 20 1014.3 1010.9 0.0
09/01:30pm 21.7 17.0 12.0 54 5.6 WSW 28 35 15 19 1014.6 1011.2 0.0
09/01:00pm 20.9 16.2 12.1 57 5.1 WSW 28 35 15 19 1014.8 1011.4 0.0
09/12:30pm 20.6 16.3 13.3 63 4.3 WSW 28 35 15 19 1014.9 1011.5 0.0
09/12:00pm 20.2 16.4 14.8 71 3.3 WSW 28 39 15 21 1015.0 1011.6 0.0
09/11:41am 19.9 16.3 16.3 80 2.2 WSW 30 39 16 21 1015.1 1011.7 0.0
09/11:30am 19.3 16.6 16.7 85 1.6 WSW 26 35 14 19 1015.1 1011.7 0.0
09/11:02am 18.9 16.1 18.2 96 0.4 WSW 30 39 16 21 1015.0 1011.6 0.0
09/11:00am 18.9 16.1 18.1 95 0.5 WSW 30 39 16 21 1015.0 1011.6 0.0
09/10:39am 19.7 17.0 19.2 97 0.3 WNW 32 43 17 23 1014.9 1011.5 0.0
09/10:36am 19.7 17.4 19.4 98 0.2 WNW 30 43 16 23 1014.9 1011.5 0.0
09/10:30am 19.7 17.4 19.4 98 0.2 WNW 30 44 16 24 1014.8 1011.4 0.0
09/10:00am 19.9 17.8 19.7 99 0.1 WNW 30 39 16 21 1014.8 1011.4 0.0
09/09:30am 19.7 17.3 19.2 97 0.3 WNW 30 43 16 23 1014.9 1011.5 0.0
09/09:00am 19.6 17.1 18.9 96 0.5 WNW 30 41 16 22 1014.8 1011.4 12.8
09/08:30am 19.4 17.8 19.1 98 0.2 WNW 26 39 14 21 1014.3 1010.9 12.8
09/08:00am 19.3 18.3 18.8 97 0.3 WNW 22 32 12 17 1014.4 1011.0 12.8
09/07:30am 19.3 18.0 19.1 99 0.1 WNW 24 37 13 20 1014.6 1011.2 12.8
09/07:00am 19.1 17.7 18.9 99 0.1 WNW 24 35 13 19 1014.3 1010.9 12.8
09/06:54am 19.1 17.7 18.9 99 0.1 WNW 24 35 13 19 1014.4 1011.0 12.8
09/06:30am 19.2 17.9 19.0 99 0.1 WNW 24 33 13 18 1014.1 1010.6 12.4
09/06:00am 19.2 17.5 19.0 99 0.1 WNW 26 35 14 19 1014.4 1011.0 12.4
09/05:51am 19.3 17.7 19.1 99 0.1 WNW 26 35 14 19 1014.2 1010.7 12.4
09/05:30am 19.2 17.9 19.0 99 0.1 WNW 24 32 13 17 1013.9 1010.4 12.4
09/05:19am 19.1 18.1 18.9 99 0.1 WNW 22 32 12 17 1013.8 1010.3 12.4
09/05:05am 19.1 18.5 18.9 99 0.1 WNW 20 30 11 16 1013.7 1010.2 12.4
09/05:00am 19.1 18.1 18.9 99 0.1 WNW 22 30 12 16 1013.7 1010.2 12.4
09/04:58am 19.1 18.1 18.9 99 0.1 WNW 22 30 12 16 1013.6 1010.1 12.4
09/04:30am 19.1 17.7 18.9 99 0.1 WNW 24 37 13 20 1013.3 1009.9 12.4
09/04:00am 19.1 18.1 18.9 99 0.1 WNW 22 32 12 17 1013.0 1009.6 12.4
09/03:42am 19.3 18.8 18.6 96 0.4 WNW 19 24 10 13 1012.9 1009.5 12.4
09/03:30am 19.3 18.7 18.5 95 0.5 WNW 19 30 10 16 1012.7 1009.2 12.4
09/03:00am 19.3 19.1 18.5 95 0.5 WNW 17 24 9 13 1012.9 1009.5 12.2
09/02:30am 19.3 18.4 18.3 94 0.6 NW 20 26 11 14 1012.8 1009.3 12.2
09/02:00am 19.4 18.7 18.6 95 0.5 WNW 20 32 11 17 1012.7 1009.2 12.2
09/01:30am 19.7 18.2 18.5 93 0.8 WNW 24 35 13 19 1013.4 1010.0 12.2
09/01:00am 19.9 18.7 18.4 91 1.0 WNW 22 30 12 16 1013.8 1010.3 12.0
09/12:30am 20.5 20.0 19.0 91 1.0 WNW 20 28 11 15 1014.1 1010.6 11.4
09/12:00am 21.8 21.1 18.2 80 2.3 NW 19 24 10 13 1014.4 1011.0 10.6
 
Date/Time
EST
Temp
°C
App
Temp
°C
Dew
Point
°C
Rel
Hum
%
Delta-T
°C
Wind Press
QNH
hPa
Press
MSL
hPa
Rain since
9am
mm
Dir  Spd
km/h
Gust
km/h
Spd
kts
Gust
kts
08/11:30pm 23.1 22.7 17.1 69 3.8 WNW 15 19 8 10 1014.2 1010.7 10.6
08/11:00pm 23.5 22.9 17.5 69 3.8 WNW 17 22 9 12 1014.3 1010.9 10.6
08/10:30pm 23.2 23.6 18.1 73 3.3 WNW 13 19 7 10 1014.2 1010.7 10.6
08/10:00pm 23.7 24.1 18.1 71 3.6 NW 13 33 7 18 1014.3 1010.9 10.6
08/09:30pm 23.1 24.8 18.4 75 3.0 NNW 7 11 4 6 1013.9 1010.4 10.6
08/09:00pm 23.3 24.4 18.0 72 3.4 N 9 15 5 8 1013.4 1010.0 10.6
08/08:30pm 23.3 24.8 18.0 72 3.4 WSW 7 11 4 6 1013.3 1009.9 10.4
08/08:00pm 23.3 24.0 18.0 72 3.4 WSW 11 13 6 7 1013.4 1010.0 10.4

Latest Capital City Observations: Canberra | Sydney | Melbourne | Brisbane | Adelaide | Perth | Hobart | Darwin

Other Formats:

Comma delimited format used in spreadsheet applications
http://www.bom.gov.au/fwo/IDQ60901/IDQ60901.95551.axf

JavaScript Object Notation format (JSON) in row-major order
http://www.bom.gov.au/fwo/IDQ60901/IDQ60901.95551.json